Terminal Aerodrome Forecast
Issued by NWS Cleveland, OH

Home | Current Version | Previous Version | Text Only | Print | Product List | Glossary Off
Versions: 1 2 3 4 5 6 7 8 9 10 11 12 13 14 15

803
FTUS41 KCLE 201722
TAFTOL
TAF
KTOL 201722Z 2018/2118 26014G20KT P6SM BKN060
     FM210000 26007KT P6SM VCSH SCT060 BKN100
     FM210400 23004KT P6SM SCT045=

USA.gov is the U.S. government's official web portal to all federal, state and local government web resources and services.